Oakglen — CYDD — position and weather

sailwx.info

Track history (hours):
 
Tides and Currents Weather Stations Pressure Air Temp Water Temp Dewpoint Dewpoint Depression Visibility Wind Speed Wind Dir Waves Ship Positions

Oakglen

Last reported at 2017-Sep-20 02:03 UTC. Time now 2017-Sep-21 04:58 UTC.
Position N 44°58' W 082°55'.

Length 223 m; draft 8.1 m.

Type: Cargo ship. MMSI: 316013966.

Date/timePositionNaut miles runAvg speedWind from/ knotsBaromVisibWave heightAir tempDewpointWater temp
2017-Sep-20 02:03N 44°58' W 082°55'112.4
2017-Sep-20 02:00N 44°58' W 082°55'1012.3
2017-Sep-20 01:11N 45°08' W 082°60'212.3
2017-Sep-20 01:00N 45°10' W 083°01'1512.0
2017-Sep-19 23:44N 45°24' W 083°10'312.2
2017-Sep-19 23:29N 45°26' W 083°13'612.2
2017-Sep-19 23:00N 45°30' W 083°19'612.3
2017-Sep-19 22:29N 45°35' W 083°25'612.4
2017-Sep-19 22:00N 45°40' W 083°31'612.5
2017-Sep-19 21:31N 45°44' W 083°37'612.4
2017-Sep-19 21:00N 45°49' W 083°43'712.4
2017-Sep-19 20:24N 45°54' W 083°50'411.0
2017-Sep-19 20:00N 45°58' W 083°54'510.1
2017-Sep-19 19:30N 46°02' W 083°56'5 9.2
2017-Sep-19 19:00N 46°06' W 084°01'6 9.5
2017-Sep-19 18:20N 46°11' W 084°06'4 8.0
2017-Sep-19 17:53N 46°13' W 084°10'35 5.2
2017-Sep-19 11:13N 46°38' W 084°46'312.5
2017-Sep-19 11:00N 46°40' W 084°48'5112.0
2017-Sep-19 06:47N 47°05' W 085°52'312.3
2017-Sep-19 06:30N 47°07' W 085°57'612.3
2017-Sep-19 06:00N 47°09' W 086°05'612.3
2017-Sep-19 05:30N 47°12' W 086°13'612.3
2017-Sep-19 05:00N 47°14' W 086°22'612.2
2017-Sep-19 04:30N 47°17' W 086°30'612.2
2017-Sep-19 04:00N 47°19' W 086°38'20412.3
2017-Sep-18 11:26N 46°57' W 091°36'512.4
2017-Sep-18 11:00N 46°55' W 091°43'612.4
2017-Sep-18 10:30N 46°50' W 091°49'612.4
2017-Sep-18 10:00N 46°46' W 091°56'510.5
2017-Sep-18 09:31N 46°42' W 092°01'0 0.9
2017-Sep-18 09:00N 46°42' W 092°01'0 0.0
2017-Sep-18 08:31N 46°42' W 092°01'0 0.0
2017-Sep-18 08:01N 46°42' W 092°01'0 0.0
2017-Sep-18 07:30N 46°42' W 092°01'0 0.0
2017-Sep-18 07:00N 46°42' W 092°01'0 0.0
2017-Sep-18 06:30N 46°42' W 092°01'0 0.0
2017-Sep-18 06:00N 46°42' W 092°01'0 0.0
2017-Sep-18 05:30N 46°42' W 092°01'0 0.0
2017-Sep-18 05:00N 46°42' W 092°01'0 0.0
2017-Sep-18 04:30N 46°42' W 092°01'0 0.0
2017-Sep-18 04:00N 46°42' W 092°01'0 0.0
2017-Sep-18 03:30N 46°42' W 092°01'0 0.0
2017-Sep-18 03:01N 46°42' W 092°01'0 0.0
2017-Sep-18 02:30N 46°42' W 092°01'0 0.0
2017-Sep-18 02:00N 46°42' W 092°01'0 0.0
2017-Sep-18 01:30N 46°42' W 092°01'0 0.0
2017-Sep-18 01:00N 46°42' W 092°01'0 0.0
2017-Sep-18 00:30N 46°42' W 092°01'0 0.0
2017-Sep-18 00:00N 46°42' W 092°01'0 0.0
2017-Sep-17 23:30N 46°42' W 092°01'0 0.0
2017-Sep-17 23:00N 46°42' W 092°01'0 0.0
2017-Sep-17 22:30N 46°42' W 092°01'0 0.0
2017-Sep-17 22:00N 46°42' W 092°01'0 0.0
2017-Sep-17 21:30N 46°42' W 092°01'0 0.0
2017-Sep-17 21:00N 46°42' W 092°01'0 0.0
2017-Sep-17 20:30N 46°42' W 092°01'0 0.0
2017-Sep-17 20:00N 46°42' W 092°01'0 0.0
2017-Sep-17 19:30N 46°42' W 092°01'0 0.0
2017-Sep-17 19:00N 46°42' W 092°01'0 0.0
2017-Sep-17 18:30N 46°42' W 092°01'0 0.0
2017-Sep-17 18:01N 46°42' W 092°01'0 0.0
2017-Sep-17 17:30N 46°42' W 092°01'0 0.0
2017-Sep-17 17:00N 46°42' W 092°01'1 1.5
2017-Sep-17 16:31N 46°43' W 092°01'3 6.8
2017-Sep-17 16:00N 46°46' W 092°00'1 2.1
2017-Sep-17 15:30N 46°46' W 092°02'0 0.0
2017-Sep-17 15:00N 46°46' W 092°02'0 0.2
2017-Sep-17 14:31N 46°46' W 092°02'0 0.1
2017-Sep-17 14:00N 46°46' W 092°02'0 0.0
2017-Sep-17 13:31N 46°46' W 092°02'0 0.1
2017-Sep-17 13:00N 46°46' W 092°02'0 0.2
2017-Sep-17 12:30N 46°46' W 092°02'0 0.1
2017-Sep-17 12:00N 46°46' W 092°02'0 0.0
2017-Sep-17 11:30N 46°46' W 092°02'0 0.0
2017-Sep-17 11:00N 46°46' W 092°02'0 0.0
2017-Sep-17 10:30N 46°46' W 092°02'0 0.1
2017-Sep-17 10:00N 46°46' W 092°02'0 0.0
2017-Sep-17 09:30N 46°46' W 092°02'0 0.0
2017-Sep-17 09:00N 46°46' W 092°02'0 0.0
2017-Sep-17 08:30N 46°46' W 092°02'0 0.0
2017-Sep-17 08:00N 46°46' W 092°02'0 0.0
2017-Sep-17 07:30N 46°46' W 092°02'0 0.1
2017-Sep-17 07:00N 46°46' W 092°02'0 0.0
2017-Sep-17 06:30N 46°46' W 092°02'0 0.1
2017-Sep-17 06:00N 46°46' W 092°02'0 0.1
2017-Sep-17 05:30N 46°46' W 092°02'0 0.1
2017-Sep-17 05:00N 46°46' W 092°02'0 0.4
2017-Sep-17 04:31N 46°46' W 092°02'0 0.2
2017-Sep-17 04:00N 46°46' W 092°02'0 0.0
2017-Sep-17 03:30N 46°46' W 092°02'0 0.0
2017-Sep-17 03:01N 46°46' W 092°02'0 0.0
2017-Sep-17 02:30N 46°46' W 092°02'0 0.0
2017-Sep-17 02:00N 46°46' W 092°02'0 0.0
2017-Sep-17 01:30N 46°46' W 092°02'0 0.0
2017-Sep-17 01:01N 46°46' W 092°02'0 0.0
2017-Sep-17 00:30N 46°46' W 092°02'0 0.0
2017-Sep-17 00:00N 46°46' W 092°02'0 0.0
2017-Sep-16 23:30N 46°46' W 092°02'0 0.0
2017-Sep-16 23:01N 46°46' W 092°02'0 0.0
2017-Sep-16 22:30N 46°46' W 092°02'0 0.1
2017-Sep-16 22:00N 46°46' W 092°02'0 0.1
2017-Sep-16 21:30N 46°46' W 092°02'0 0.1
2017-Sep-16 21:00N 46°46' W 092°02'0 0.0
2017-Sep-16 20:30N 46°46' W 092°02'0 0.0
2017-Sep-16 20:00N 46°46' W 092°02'0 0.0
2017-Sep-16 19:30N 46°46' W 092°02'0 0.0
2017-Sep-16 19:00N 46°46' W 092°02'0 0.0
2017-Sep-16 18:30N 46°46' W 092°02'0 0.0
2017-Sep-16 18:00N 46°46' W 092°02'0 0.0
2017-Sep-16 17:30N 46°46' W 092°02'0 0.0
2017-Sep-16 17:00N 46°46' W 092°02'0 0.0
2017-Sep-16 16:30N 46°46' W 092°02'0 0.0
2017-Sep-16 16:00N 46°46' W 092°02'0 0.0
2017-Sep-16 15:31N 46°46' W 092°02'0 0.0
2017-Sep-16 15:01N 46°46' W 092°02'0 0.0
2017-Sep-16 14:30N 46°46' W 092°02'0 0.0
2017-Sep-16 14:01N 46°46' W 092°02'0 0.0
2017-Sep-16 13:30N 46°46' W 092°02'0 0.0
2017-Sep-16 13:00N 46°46' W 092°02'0 0.0
2017-Sep-16 12:30N 46°46' W 092°02'0 0.0
2017-Sep-16 12:00N 46°46' W 092°02'0 0.0
2017-Sep-16 11:30N 46°46' W 092°02'0 0.0
2017-Sep-16 11:01N 46°46' W 092°02'0 0.0
2017-Sep-16 10:30N 46°46' W 092°02'0 0.0
2017-Sep-16 10:00N 46°46' W 092°02'0 0.0
2017-Sep-16 09:30N 46°46' W 092°02'0 0.0
2017-Sep-16 09:00N 46°46' W 092°02'0 0.0
2017-Sep-16 08:30N 46°46' W 092°02'0 0.0
2017-Sep-16 08:00N 46°46' W 092°02'0 0.0
2017-Sep-16 07:30N 46°46' W 092°02'0 0.0
2017-Sep-16 07:00N 46°46' W 092°02'0 0.0
2017-Sep-16 06:30N 46°46' W 092°02'0 0.0
2017-Sep-16 05:58N 46°46' W 092°02'0 0.0
2017-Sep-16 05:30N 46°46' W 092°02'0 0.0
2017-Sep-16 05:00N 46°46' W 092°02'0 0.0
2017-Sep-16 04:30N 46°46' W 092°02'0 0.0
2017-Sep-16 04:00N 46°46' W 092°02'0 0.0
2017-Sep-16 03:30N 46°46' W 092°02'0 0.0
2017-Sep-16 03:00N 46°46' W 092°02'0 0.0
2017-Sep-16 02:30N 46°46' W 092°02'0 0.0
2017-Sep-16 02:00N 46°46' W 092°02'0 0.0
2017-Sep-16 01:31N 46°46' W 092°02'0 0.0
2017-Sep-16 01:01N 46°46' W 092°02'0 0.0
2017-Sep-16 00:31N 46°46' W 092°02'0 0.0
2017-Sep-16 00:00N 46°46' W 092°02'0 0.0
2017-Sep-15 23:31N 46°46' W 092°02'0 0.0
2017-Sep-15 23:01N 46°46' W 092°02'0 0.0
2017-Sep-15 22:30N 46°46' W 092°02'0 0.1
2017-Sep-15 22:01N 46°46' W 092°02'0 0.0
2017-Sep-15 21:31N 46°46' W 092°02'0 0.0
2017-Sep-15 21:01N 46°46' W 092°02'0 0.0
2017-Sep-15 20:30N 46°46' W 092°02'0 0.0
2017-Sep-15 20:00N 46°46' W 092°02'0 0.0
2017-Sep-15 19:31N 46°46' W 092°02'0 0.0
2017-Sep-15 19:01N 46°46' W 092°02'0 0.1
2017-Sep-15 18:30N 46°46' W 092°02'0 0.0
2017-Sep-15 18:00N 46°46' W 092°02'0 0.0
2017-Sep-15 17:30N 46°46' W 092°02'0 0.0
2017-Sep-15 17:00N 46°46' W 092°02'0 0.0
2017-Sep-15 16:30N 46°46' W 092°02'0 0.0
2017-Sep-15 16:00N 46°46' W 092°02'0 0.0
2017-Sep-15 15:30N 46°46' W 092°02'0 0.0
2017-Sep-15 15:00N 46°46' W 092°02'0 0.0
2017-Sep-15 14:30N 46°46' W 092°02'27 1.9
2017-Sep-15 00:27N 46°55' W 091°25'21812.6
2017-Sep-14 07:04N 47°05' W 086°06'113.0
2017-Sep-14 06:58N 47°05' W 086°04'2113.0
2017-Sep-14 05:19N 46°57' W 085°34'513.1
2017-Sep-14 04:55N 46°55' W 085°27'613.0
2017-Sep-14 04:30N 46°53' W 085°20'2413.0
2017-Sep-14 02:40N 46°45' W 084°47'513.3
2017-Sep-14 02:17N 46°40' W 084°46'713.1
2017-Sep-14 01:47N 46°34' W 084°41'413.0
2017-Sep-14 01:28N 46°31' W 084°37'512.0
2017-Sep-14 01:00N 46°27' W 084°32'5 9.7
2017-Sep-14 00:29N 46°29' W 084°26'21 5.2
2017-Sep-13 20:24N 46°12' W 084°07'1010.3
2017-Sep-13 19:26N 46°04' W 083°60'511.6
2017-Sep-13 19:00N 46°02' W 083°53'611.4
2017-Sep-13 18:30N 45°56' W 083°53'612.3
2017-Sep-13 18:00N 45°51' W 083°48'713.4
2017-Sep-13 17:30N 45°46' W 083°42'713.3
2017-Sep-13 17:00N 45°40' W 083°37'713.3
2017-Sep-13 16:30N 45°35' W 083°31'713.4
2017-Sep-13 15:59N 45°29' W 083°25'613.3
2017-Sep-13 15:30N 45°24' W 083°20'713.3
2017-Sep-13 15:00N 45°18' W 083°15'713.3
2017-Sep-13 14:29N 45°12' W 083°10'713.4
2017-Sep-13 13:59N 45°06' W 083°06'713.3
2017-Sep-13 13:29N 44°60' W 083°03'713.3
2017-Sep-13 12:57N 44°53' W 083°00'713.2
2017-Sep-13 12:28N 44°47' W 082°57'613.2
2017-Sep-13 12:00N 44°41' W 082°55'713.2
2017-Sep-13 11:28N 44°35' W 082°52'1013.2
2017-Sep-13 10:43N 44°25' W 082°47'  
Track history (hours):
 
Tides and Currents Weather Stations Pressure Air Temp Water Temp Dewpoint Dewpoint Depression Visibility Wind Speed Wind Dir Waves Ship Positions

Oakglen

Last reported at 2017-Sep-20 02:03 UTC. Time now 2017-Sep-21 04:58 UTC.
Position N 44°58' W 082°55'.

Length 223 m; draft 8.1 m.

Type: Cargo ship. MMSI: 316013966.

Date/timePositionNaut miles runAvg speedWind from/ knotsBaromVisibWave heightAir tempDewpointWater temp
2017-Sep-20 02:03N 44°58' W 082°55'112.4
2017-Sep-20 02:00N 44°58' W 082°55'1012.3
2017-Sep-20 01:11N 45°08' W 082°60'212.3
2017-Sep-20 01:00N 45°10' W 083°01'1512.0
2017-Sep-19 23:44N 45°24' W 083°10'312.2
2017-Sep-19 23:29N 45°26' W 083°13'612.2
2017-Sep-19 23:00N 45°30' W 083°19'612.3
2017-Sep-19 22:29N 45°35' W 083°25'612.4
2017-Sep-19 22:00N 45°40' W 083°31'612.5
2017-Sep-19 21:31N 45°44' W 083°37'612.4
2017-Sep-19 21:00N 45°49' W 083°43'712.4
2017-Sep-19 20:24N 45°54' W 083°50'411.0
2017-Sep-19 20:00N 45°58' W 083°54'510.1
2017-Sep-19 19:30N 46°02' W 083°56'5 9.2
2017-Sep-19 19:00N 46°06' W 084°01'6 9.5
2017-Sep-19 18:20N 46°11' W 084°06'4 8.0
2017-Sep-19 17:53N 46°13' W 084°10'35 5.2
2017-Sep-19 11:13N 46°38' W 084°46'312.5
2017-Sep-19 11:00N 46°40' W 084°48'5112.0
2017-Sep-19 06:47N 47°05' W 085°52'312.3
2017-Sep-19 06:30N 47°07' W 085°57'612.3
2017-Sep-19 06:00N 47°09' W 086°05'612.3
2017-Sep-19 05:30N 47°12' W 086°13'612.3
2017-Sep-19 05:00N 47°14' W 086°22'612.2
2017-Sep-19 04:30N 47°17' W 086°30'612.2
2017-Sep-19 04:00N 47°19' W 086°38'20412.3
2017-Sep-18 11:26N 46°57' W 091°36'512.4
2017-Sep-18 11:00N 46°55' W 091°43'612.4
2017-Sep-18 10:30N 46°50' W 091°49'612.4
2017-Sep-18 10:00N 46°46' W 091°56'510.5
2017-Sep-18 09:31N 46°42' W 092°01'0 0.9
2017-Sep-18 09:00N 46°42' W 092°01'0 0.0
2017-Sep-18 08:31N 46°42' W 092°01'0 0.0
2017-Sep-18 08:01N 46°42' W 092°01'0 0.0
2017-Sep-18 07:30N 46°42' W 092°01'0 0.0
2017-Sep-18 07:00N 46°42' W 092°01'0 0.0
2017-Sep-18 06:30N 46°42' W 092°01'0 0.0
2017-Sep-18 06:00N 46°42' W 092°01'0 0.0
2017-Sep-18 05:30N 46°42' W 092°01'0 0.0
2017-Sep-18 05:00N 46°42' W 092°01'0 0.0
2017-Sep-18 04:30N 46°42' W 092°01'0 0.0
2017-Sep-18 04:00N 46°42' W 092°01'0 0.0
2017-Sep-18 03:30N 46°42' W 092°01'0 0.0
2017-Sep-18 03:01N 46°42' W 092°01'0 0.0
2017-Sep-18 02:30N 46°42' W 092°01'0 0.0
2017-Sep-18 02:00N 46°42' W 092°01'0 0.0
2017-Sep-18 01:30N 46°42' W 092°01'0 0.0
2017-Sep-18 01:00N 46°42' W 092°01'0 0.0
2017-Sep-18 00:30N 46°42' W 092°01'0 0.0
2017-Sep-18 00:00N 46°42' W 092°01'0 0.0
2017-Sep-17 23:30N 46°42' W 092°01'0 0.0
2017-Sep-17 23:00N 46°42' W 092°01'0 0.0
2017-Sep-17 22:30N 46°42' W 092°01'0 0.0
2017-Sep-17 22:00N 46°42' W 092°01'0 0.0
2017-Sep-17 21:30N 46°42' W 092°01'0 0.0
2017-Sep-17 21:00N 46°42' W 092°01'0 0.0
2017-Sep-17 20:30N 46°42' W 092°01'0 0.0
2017-Sep-17 20:00N 46°42' W 092°01'0 0.0
2017-Sep-17 19:30N 46°42' W 092°01'0 0.0
2017-Sep-17 19:00N 46°42' W 092°01'0 0.0
2017-Sep-17 18:30N 46°42' W 092°01'0 0.0
2017-Sep-17 18:01N 46°42' W 092°01'0 0.0
2017-Sep-17 17:30N 46°42' W 092°01'0 0.0
2017-Sep-17 17:00N 46°42' W 092°01'1 1.5
2017-Sep-17 16:31N 46°43' W 092°01'3 6.8
2017-Sep-17 16:00N 46°46' W 092°00'1 2.1
2017-Sep-17 15:30N 46°46' W 092°02'0 0.0
2017-Sep-17 15:00N 46°46' W 092°02'0 0.2
2017-Sep-17 14:31N 46°46' W 092°02'0 0.1
2017-Sep-17 14:00N 46°46' W 092°02'0 0.0
2017-Sep-17 13:31N 46°46' W 092°02'0 0.1
2017-Sep-17 13:00N 46°46' W 092°02'0 0.2
2017-Sep-17 12:30N 46°46' W 092°02'0 0.1
2017-Sep-17 12:00N 46°46' W 092°02'0 0.0
2017-Sep-17 11:30N 46°46' W 092°02'0 0.0
2017-Sep-17 11:00N 46°46' W 092°02'0 0.0
2017-Sep-17 10:30N 46°46' W 092°02'0 0.1
2017-Sep-17 10:00N 46°46' W 092°02'0 0.0
2017-Sep-17 09:30N 46°46' W 092°02'0 0.0
2017-Sep-17 09:00N 46°46' W 092°02'0 0.0
2017-Sep-17 08:30N 46°46' W 092°02'0 0.0
2017-Sep-17 08:00N 46°46' W 092°02'0 0.0
2017-Sep-17 07:30N 46°46' W 092°02'0 0.1
2017-Sep-17 07:00N 46°46' W 092°02'0 0.0
2017-Sep-17 06:30N 46°46' W 092°02'0 0.1
2017-Sep-17 06:00N 46°46' W 092°02'0 0.1
2017-Sep-17 05:30N 46°46' W 092°02'0 0.1
2017-Sep-17 05:00N 46°46' W 092°02'0 0.4
2017-Sep-17 04:31N 46°46' W 092°02'0 0.2
2017-Sep-17 04:00N 46°46' W 092°02'0 0.0
2017-Sep-17 03:30N 46°46' W 092°02'0 0.0
2017-Sep-17 03:01N 46°46' W 092°02'0 0.0
2017-Sep-17 02:30N 46°46' W 092°02'0 0.0
2017-Sep-17 02:00N 46°46' W 092°02'0 0.0
2017-Sep-17 01:30N 46°46' W 092°02'0 0.0
2017-Sep-17 01:01N 46°46' W 092°02'0 0.0
2017-Sep-17 00:30N 46°46' W 092°02'0 0.0
2017-Sep-17 00:00N 46°46' W 092°02'0 0.0
2017-Sep-16 23:30N 46°46' W 092°02'0 0.0
2017-Sep-16 23:01N 46°46' W 092°02'0 0.0
2017-Sep-16 22:30N 46°46' W 092°02'0 0.1
2017-Sep-16 22:00N 46°46' W 092°02'0 0.1
2017-Sep-16 21:30N 46°46' W 092°02'0 0.1
2017-Sep-16 21:00N 46°46' W 092°02'0 0.0
2017-Sep-16 20:30N 46°46' W 092°02'0 0.0
2017-Sep-16 20:00N 46°46' W 092°02'0 0.0
2017-Sep-16 19:30N 46°46' W 092°02'0 0.0
2017-Sep-16 19:00N 46°46' W 092°02'0 0.0
2017-Sep-16 18:30N 46°46' W 092°02'0 0.0
2017-Sep-16 18:00N 46°46' W 092°02'0 0.0
2017-Sep-16 17:30N 46°46' W 092°02'0 0.0
2017-Sep-16 17:00N 46°46' W 092°02'0 0.0
2017-Sep-16 16:30N 46°46' W 092°02'0 0.0
2017-Sep-16 16:00N 46°46' W 092°02'0 0.0
2017-Sep-16 15:31N 46°46' W 092°02'0 0.0
2017-Sep-16 15:01N 46°46' W 092°02'0 0.0
2017-Sep-16 14:30N 46°46' W 092°02'0 0.0
2017-Sep-16 14:01N 46°46' W 092°02'0 0.0
2017-Sep-16 13:30N 46°46' W 092°02'0 0.0
2017-Sep-16 13:00N 46°46' W 092°02'0 0.0
2017-Sep-16 12:30N 46°46' W 092°02'0 0.0
2017-Sep-16 12:00N 46°46' W 092°02'0 0.0
2017-Sep-16 11:30N 46°46' W 092°02'0 0.0
2017-Sep-16 11:01N 46°46' W 092°02'0 0.0
2017-Sep-16 10:30N 46°46' W 092°02'0 0.0
2017-Sep-16 10:00N 46°46' W 092°02'0 0.0
2017-Sep-16 09:30N 46°46' W 092°02'0 0.0
2017-Sep-16 09:00N 46°46' W 092°02'0 0.0
2017-Sep-16 08:30N 46°46' W 092°02'0 0.0
2017-Sep-16 08:00N 46°46' W 092°02'0 0.0
2017-Sep-16 07:30N 46°46' W 092°02'0 0.0
2017-Sep-16 07:00N 46°46' W 092°02'0 0.0
2017-Sep-16 06:30N 46°46' W 092°02'0 0.0
2017-Sep-16 05:58N 46°46' W 092°02'0 0.0
2017-Sep-16 05:30N 46°46' W 092°02'0 0.0
2017-Sep-16 05:00N 46°46' W 092°02'0 0.0
2017-Sep-16 04:30N 46°46' W 092°02'0 0.0
2017-Sep-16 04:00N 46°46' W 092°02'0 0.0
2017-Sep-16 03:30N 46°46' W 092°02'0 0.0
2017-Sep-16 03:00N 46°46' W 092°02'0 0.0
2017-Sep-16 02:30N 46°46' W 092°02'0 0.0
2017-Sep-16 02:00N 46°46' W 092°02'0 0.0
2017-Sep-16 01:31N 46°46' W 092°02'0 0.0
2017-Sep-16 01:01N 46°46' W 092°02'0 0.0
2017-Sep-16 00:31N 46°46' W 092°02'0 0.0
2017-Sep-16 00:00N 46°46' W 092°02'0 0.0
2017-Sep-15 23:31N 46°46' W 092°02'0 0.0
2017-Sep-15 23:01N 46°46' W 092°02'0 0.0
2017-Sep-15 22:30N 46°46' W 092°02'0 0.1
2017-Sep-15 22:01N 46°46' W 092°02'0 0.0
2017-Sep-15 21:31N 46°46' W 092°02'0 0.0
2017-Sep-15 21:01N 46°46' W 092°02'0 0.0
2017-Sep-15 20:30N 46°46' W 092°02'0 0.0
2017-Sep-15 20:00N 46°46' W 092°02'0 0.0
2017-Sep-15 19:31N 46°46' W 092°02'0 0.0
2017-Sep-15 19:01N 46°46' W 092°02'0 0.1
2017-Sep-15 18:30N 46°46' W 092°02'0 0.0
2017-Sep-15 18:00N 46°46' W 092°02'0 0.0
2017-Sep-15 17:30N 46°46' W 092°02'0 0.0
2017-Sep-15 17:00N 46°46' W 092°02'0 0.0
2017-Sep-15 16:30N 46°46' W 092°02'0 0.0
2017-Sep-15 16:00N 46°46' W 092°02'0 0.0
2017-Sep-15 15:30N 46°46' W 092°02'0 0.0
2017-Sep-15 15:00N 46°46' W 092°02'0 0.0
2017-Sep-15 14:30N 46°46' W 092°02'27 1.9
2017-Sep-15 00:27N 46°55' W 091°25'21812.6
2017-Sep-14 07:04N 47°05' W 086°06'113.0
2017-Sep-14 06:58N 47°05' W 086°04'2113.0
2017-Sep-14 05:19N 46°57' W 085°34'513.1
2017-Sep-14 04:55N 46°55' W 085°27'613.0
2017-Sep-14 04:30N 46°53' W 085°20'2413.0
2017-Sep-14 02:40N 46°45' W 084°47'513.3
2017-Sep-14 02:17N 46°40' W 084°46'713.1
2017-Sep-14 01:47N 46°34' W 084°41'413.0
2017-Sep-14 01:28N 46°31' W 084°37'512.0
2017-Sep-14 01:00N 46°27' W 084°32'5 9.7
2017-Sep-14 00:29N 46°29' W 084°26'21 5.2
2017-Sep-13 20:24N 46°12' W 084°07'1010.3
2017-Sep-13 19:26N 46°04' W 083°60'511.6
2017-Sep-13 19:00N 46°02' W 083°53'611.4
2017-Sep-13 18:30N 45°56' W 083°53'612.3
2017-Sep-13 18:00N 45°51' W 083°48'713.4
2017-Sep-13 17:30N 45°46' W 083°42'713.3
2017-Sep-13 17:00N 45°40' W 083°37'713.3
2017-Sep-13 16:30N 45°35' W 083°31'713.4
2017-Sep-13 15:59N 45°29' W 083°25'613.3
2017-Sep-13 15:30N 45°24' W 083°20'713.3
2017-Sep-13 15:00N 45°18' W 083°15'713.3
2017-Sep-13 14:29N 45°12' W 083°10'713.4
2017-Sep-13 13:59N 45°06' W 083°06'713.3
2017-Sep-13 13:29N 44°60' W 083°03'713.3
2017-Sep-13 12:57N 44°53' W 083°00'713.2
2017-Sep-13 12:28N 44°47' W 082°57'613.2
2017-Sep-13 12:00N 44°41' W 082°55'713.2
2017-Sep-13 11:28N 44°35' W 082°52'1013.2
2017-Sep-13 10:43N 44°25' W 082°47'  

Dump ship's entire track history